Time;durP1;ratioP1;P1;durP2;ratioP2;P2;SDS_P1;SDS_P2;PMS_P1;PMS_P2;Temp;Humidity;BMP_temperature;BMP_pressure;BME280_temperature;BME280_humidity;BME280_pressure;Samples;Min_cycle;Max_cycle;Signal;HPM_P1;HPM_P2
2022/11/28 00:00:44;;;;;;;18.17;13.70;;;8.30;93.50;;;;;;4961769;28;20676;-72
2022/11/28 00:03:09;;;;;;;32.75;24.33;;;8.30;93.50;;;;;;4962740;28;20031;-76
2022/11/28 00:05:35;;;;;;;20.20;15.88;;;8.30;93.50;;;;;;4966567;28;20039;-72
2022/11/28 00:08:01;;;;;;;13.13;10.77;;;8.30;93.50;;;;;;4966676;28;20042;-76
2022/11/28 00:10:27;;;;;;;15.40;11.57;;;8.30;93.50;;;;;;4968207;28;20035;-72
2022/11/28 00:12:52;;;;;;;25.27;22.02;;;8.30;93.60;;;;;;4964387;28;20280;-76
2022/11/28 00:15:18;;;;;;;29.25;21.95;;;8.30;93.50;;;;;;4961110;28;20700;-75
2022/11/28 00:17:44;;;;;;;32.13;23.63;;;8.30;93.60;;;;;;4970877;28;20471;-71
2022/11/28 00:20:09;;;;;;;36.13;28.00;;;8.30;93.50;;;;;;4969777;28;20403;-77
2022/11/28 00:22:35;;;;;;;16.00;12.48;;;8.30;93.50;;;;;;4970292;28;20399;-70
2022/11/28 00:25:01;;;;;;;15.32;11.75;;;8.30;93.50;;;;;;4969354;28;20526;-73
2022/11/28 00:27:26;;;;;;;15.07;10.73;;;8.30;93.50;;;;;;4972379;28;20030;-73
2022/11/28 00:29:52;;;;;;;13.07;9.43;;;8.20;93.50;;;;;;4974185;28;20058;-73
2022/11/28 00:32:18;;;;;;;13.10;8.85;;;8.20;93.50;;;;;;4983560;28;20078;-76
2022/11/28 00:34:43;;;;;;;13.50;9.40;;;8.20;93.50;;;;;;4965154;28;20467;-72
2022/11/28 00:37:09;;;;;;;16.95;9.70;;;8.20;93.50;;;;;;4965943;28;20126;-74
2022/11/28 00:39:34;;;;;;;14.60;9.13;;;8.20;93.50;;;;;;4969223;28;20109;-76
2022/11/28 00:42:00;;;;;;;12.73;9.02;;;8.20;93.50;;;;;;4968125;28;20071;-74
2022/11/28 00:44:26;;;;;;;14.77;9.50;;;8.20;93.60;;;;;;4963413;28;20053;-76
2022/11/28 00:46:51;;;;;;;14.52;9.95;;;8.20;93.60;;;;;;4972355;28;20170;-73
2022/11/28 00:49:17;;;;;;;14.70;9.52;;;8.20;93.60;;;;;;4967890;28;20038;-73
2022/11/28 00:51:43;;;;;;;12.68;9.10;;;8.20;93.60;;;;;;4964280;28;20432;-77
2022/11/28 00:54:09;;;;;;;13.35;8.95;;;8.20;93.70;;;;;;4966907;28;20030;-74
2022/11/28 00:56:39;;;;;;;14.43;9.38;;;8.20;93.60;;;;;;4970480;28;20042;-73
2022/11/28 00:59:06;;;;;;;13.65;9.50;;;8.20;93.70;;;;;;4968750;28;20029;-74
2022/11/28 01:01:38;;;;;;;15.32;10.23;;;8.20;93.60;;;;;;4967234;28;20550;-76
2022/11/28 01:04:07;;;;;;;14.02;10.40;;;8.20;93.60;;;;;;4960737;28;20065;-73
2022/11/28 01:06:35;;;;;;;12.90;10.13;;;8.20;93.60;;;;;;4966049;28;20110;-75
2022/11/28 01:09:06;;;;;;;13.07;9.90;;;8.20;93.60;;;;;;4966212;28;20031;-74
2022/11/28 01:11:32;;;;;;;13.23;9.52;;;8.20;93.60;;;;;;4972055;28;20086;-72
2022/11/28 01:13:59;;;;;;;14.88;10.10;;;8.20;93.70;;;;;;4967193;28;20322;-76
2022/11/28 01:16:25;;;;;;;16.27;10.93;;;8.20;93.70;;;;;;4971969;28;20367;-72
2022/11/28 01:18:51;;;;;;;14.25;10.55;;;8.20;93.70;;;;;;4971383;28;20085;-73
2022/11/28 01:21:18;;;;;;;14.00;10.77;;;8.20;93.70;;;;;;4969497;28;20416;-76
2022/11/28 01:23:43;;;;;;;14.70;10.10;;;8.20;93.70;;;;;;4973592;28;20019;-72
2022/11/28 01:26:13;;;;;;;14.50;10.45;;;8.20;93.80;;;;;;4968937;28;20471;-74
2022/11/28 01:28:39;;;;;;;15.77;11.00;;;8.20;93.80;;;;;;4968464;28;20050;-75
2022/11/28 01:31:13;;;;;;;13.98;10.85;;;8.20;93.80;;;;;;4967218;28;20034;-73
2022/11/28 01:33:38;;;;;;;15.43;10.90;;;8.20;93.80;;;;;;4972133;28;20057;-72
2022/11/28 01:36:04;;;;;;;15.02;10.60;;;8.20;93.80;;;;;;4963241;28;20031;-74
2022/11/28 01:38:30;;;;;;;15.68;10.93;;;8.20;93.80;;;;;;4969286;28;20034;-71
2022/11/28 01:40:56;;;;;;;16.67;10.70;;;8.20;93.80;;;;;;4963758;28;20454;-74
2022/11/28 01:43:23;;;;;;;15.07;11.18;;;8.20;93.80;;;;;;4976916;28;20451;-75
2022/11/28 01:45:49;;;;;;;16.15;11.85;;;8.20;93.90;;;;;;4966886;28;20043;-73
2022/11/28 01:48:21;;;;;;;15.88;11.25;;;8.20;93.90;;;;;;4968075;28;20116;-73
2022/11/28 01:50:49;;;;;;;16.00;11.98;;;8.10;94.00;;;;;;4968939;28;20121;-76
2022/11/28 01:53:16;;;;;;;15.45;11.90;;;8.10;94.00;;;;;;4964368;28;20026;-74
2022/11/28 01:55:50;;;;;;;15.10;11.52;;;8.10;94.10;;;;;;4972914;28;20483;-74
2022/11/28 01:58:16;;;;;;;16.38;11.95;;;8.10;94.10;;;;;;4969810;28;20026;-73
2022/11/28 02:00:42;;;;;;;15.82;12.23;;;8.20;94.10;;;;;;4971997;28;20065;-74
2022/11/28 02:03:44;;;;;;;16.13;12.18;;;8.20;94.10;;;;;;4968670;28;20042;-72
2022/11/28 02:06:12;;;;;;;18.20;11.27;;;8.20;94.10;;;;;;4967559;28;20069;-77
2022/11/28 02:08:38;;;;;;;16.15;11.63;;;8.20;94.10;;;;;;4968971;28;20041;-74
2022/11/28 02:11:13;;;;;;;17.75;12.73;;;8.20;94.10;;;;;;4967221;28;20360;-73
2022/11/28 02:13:59;;;;;;;17.90;13.27;;;8.20;94.10;;;;;;4966321;28;20391;-74
2022/11/28 02:17:13;;;;;;;16.70;13.10;;;8.20;94.10;;;;;;4967006;28;20495;-72
2022/11/28 02:20:16;;;;;;;16.17;12.43;;;8.20;94.10;;;;;;4965574;28;20026;-72
2022/11/28 02:22:54;;;;;;;16.30;13.07;;;8.20;94.20;;;;;;4966190;28;20438;-72
2022/11/28 02:25:43;;;;;;;17.42;13.73;;;8.30;94.20;;;;;;4967513;28;20222;-73
2022/11/28 02:28:41;;;;;;;18.70;13.85;;;8.30;94.20;;;;;;4968032;28;20039;-72
2022/11/28 02:31:19;;;;;;;17.40;14.25;;;8.30;94.20;;;;;;4942911;28;20034;-73
2022/11/28 02:33:58;;;;;;;17.83;14.00;;;8.30;94.30;;;;;;4969058;28;20034;-73
2022/11/28 02:36:42;;;;;;;18.23;14.57;;;8.30;94.20;;;;;;4970287;28;20105;-75
2022/11/28 02:39:30;;;;;;;20.40;15.63;;;8.30;94.20;;;;;;4962296;28;20424;-73
2022/11/28 02:42:06;;;;;;;19.67;14.27;;;8.40;94.30;;;;;;4966448;28;20131;-75
2022/11/28 02:44:46;;;;;;;19.83;15.48;;;8.30;94.30;;;;;;4973454;28;20059;-78
2022/11/28 02:47:23;;;;;;;20.08;16.42;;;8.30;94.30;;;;;;4964734;28;20384;-72
2022/11/28 02:49:57;;;;;;;20.95;16.50;;;8.40;94.30;;;;;;4962256;28;20041;-77
2022/11/28 02:52:28;;;;;;;19.88;16.27;;;8.30;94.20;;;;;;4978157;28;20395;-73
2022/11/28 02:54:55;;;;;;;19.35;15.40;;;8.30;94.20;;;;;;4969770;28;20038;-74
2022/11/28 02:57:21;;;;;;;18.83;16.15;;;8.30;94.30;;;;;;4964788;28;20475;-72
2022/11/28 02:59:48;;;;;;;21.75;17.08;;;8.30;94.30;;;;;;4962310;28;20121;-73
2022/11/28 03:02:27;;;;;;;20.17;16.48;;;8.40;94.30;;;;;;4959564;28;20400;-72
2022/11/28 03:05:04;;;;;;;21.05;16.67;;;8.40;94.30;;;;;;4966220;28;20497;-74
2022/11/28 03:07:36;;;;;;;22.67;18.98;;;8.40;94.40;;;;;;4969396;28;20066;-73
2022/11/28 03:10:22;;;;;;;21.63;17.25;;;8.40;94.40;;;;;;4966585;28;20046;-74
2022/11/28 03:13:08;;;;;;;24.55;18.33;;;8.40;94.40;;;;;;4962518;28;20049;-73
2022/11/28 03:15:58;;;;;;;24.63;18.52;;;8.40;94.40;;;;;;4966643;28;20097;-73
2022/11/28 03:18:29;;;;;;;26.60;19.48;;;8.40;94.50;;;;;;4968800;28;20093;-74
2022/11/28 03:21:00;;;;;;;26.75;20.45;;;8.40;94.50;;;;;;4966798;28;20095;-76
2022/11/28 03:23:47;;;;;;;25.10;20.25;;;8.50;94.50;;;;;;4969996;28;20419;-73
2022/11/28 03:26:35;;;;;;;27.10;20.63;;;8.50;94.50;;;;;;4964765;28;20051;-74
2022/11/28 03:29:29;;;;;;;27.00;20.63;;;8.50;94.50;;;;;;4969234;28;20035;-73
2022/11/28 03:32:00;;;;;;;24.17;19.95;;;8.50;94.50;;;;;;4963659;28;20411;-74
2022/11/28 03:34:37;;;;;;;28.17;21.33;;;8.50;94.50;;;;;;4969305;28;20682;-73
2022/11/28 03:37:08;;;;;;;27.98;21.55;;;8.50;94.60;;;;;;4964424;28;20035;-75
2022/11/28 03:39:38;;;;;;;27.58;20.80;;;8.60;94.60;;;;;;4981179;28;20042;-75
2022/11/28 03:42:15;;;;;;;28.35;22.75;;;8.60;94.70;;;;;;4968405;28;20085;-77
2022/11/28 03:45:08;;;;;;;29.08;22.85;;;8.60;94.60;;;;;;4967035;28;20122;-76
2022/11/28 03:47:40;;;;;;;28.77;22.30;;;8.60;94.60;;;;;;4963263;28;20039;-72
2022/11/28 03:50:12;;;;;;;29.58;23.13;;;8.60;94.60;;;;;;4969873;28;20376;-73
2022/11/28 03:52:45;;;;;;;28.42;22.63;;;8.60;94.70;;;;;;4965875;28;20151;-75
2022/11/28 03:55:20;;;;;;;28.73;22.50;;;8.60;94.70;;;;;;4964281;28;20038;-76
2022/11/28 03:58:10;;;;;;;29.20;24.58;;;8.60;94.70;;;;;;4965911;28;20042;-73
2022/11/28 04:00:43;;;;;;;33.28;24.52;;;8.60;94.70;;;;;;4963476;28;20047;-77
2022/11/28 04:03:27;;;;;;;34.80;25.50;;;8.60;94.70;;;;;;4962880;28;20034;-76
2022/11/28 04:05:59;;;;;;;33.72;26.33;;;8.60;94.70;;;;;;4966701;28;20051;-75
2022/11/28 04:08:42;;;;;;;32.97;25.98;;;8.60;94.70;;;;;;4962900;28;20031;-76
2022/11/28 04:11:13;;;;;;;32.97;26.05;;;8.60;94.70;;;;;;4964375;28;20039;-73
2022/11/28 04:14:03;;;;;;;31.20;25.02;;;8.60;94.80;;;;;;4964854;28;20495;-76
2022/11/28 04:16:44;;;;;;;32.70;25.80;;;8.60;94.80;;;;;;4966555;28;20094;-72
2022/11/28 04:19:20;;;;;;;36.00;28.27;;;8.60;94.80;;;;;;4965135;28;20471;-77
2022/11/28 04:21:58;;;;;;;32.63;26.13;;;8.60;94.80;;;;;;4968054;28;20050;-76
2022/11/28 04:24:30;;;;;;;33.90;26.70;;;8.70;94.90;;;;;;4963022;28;20054;-74
2022/11/28 04:27:03;;;;;;;35.10;27.95;;;8.70;94.80;;;;;;4967189;28;20066;-76
2022/11/28 04:29:35;;;;;;;37.67;29.65;;;8.70;94.80;;;;;;4965435;28;20042;-77
2022/11/28 04:32:03;;;;;;;33.88;28.08;;;8.70;94.80;;;;;;4962607;28;20041;-73
2022/11/28 04:34:31;;;;;;;38.03;29.02;;;8.70;94.90;;;;;;4964243;28;20043;-73
2022/11/28 04:36:58;;;;;;;38.42;29.50;;;8.80;94.90;;;;;;4963377;28;20027;-73
2022/11/28 04:39:26;;;;;;;38.03;30.70;;;8.80;94.90;;;;;;4968353;28;20536;-75
2022/11/28 04:41:53;;;;;;;36.80;29.27;;;8.80;94.90;;;;;;4967120;28;20410;-73
2022/11/28 04:44:36;;;;;;;38.53;30.55;;;8.80;95.00;;;;;;4969922;28;20027;-77
2022/11/28 04:47:03;;;;;;;36.90;30.70;;;8.80;94.90;;;;;;4969481;28;20031;-73
2022/11/28 04:49:29;;;;;;;39.72;30.45;;;8.80;95.00;;;;;;4969139;28;20049;-75
2022/11/28 04:52:03;;;;;;;36.78;29.50;;;8.80;94.90;;;;;;4966114;28;20026;-73
2022/11/28 04:54:59;;;;;;;35.03;28.85;;;8.80;95.00;;;;;;4967683;28;20038;-73
2022/11/28 04:57:38;;;;;;;40.08;30.58;;;8.90;95.00;;;;;;4971833;28;20038;-75
2022/11/28 05:00:17;;;;;;;37.90;30.40;;;8.80;94.90;;;;;;4963624;28;20039;-76
2022/11/28 05:02:44;;;;;;;37.40;29.55;;;8.80;95.00;;;;;;4962782;28;20477;-76
2022/11/28 05:05:17;;;;;;;35.72;29.40;;;8.80;95.00;;;;;;4965526;28;20057;-75
2022/11/28 05:07:42;;;;;;;40.10;31.33;;;8.80;95.00;;;;;;4967587;28;20053;-73
2022/11/28 05:10:12;;;;;;;36.65;30.52;;;8.80;95.00;;;;;;4970903;28;20414;-75
2022/11/28 05:12:38;;;;;;;37.53;29.73;;;8.70;95.00;;;;;;4968682;28;20027;-75
2022/11/28 05:15:04;;;;;;;33.58;28.00;;;8.80;95.10;;;;;;4972551;28;20037;-75
2022/11/28 05:17:30;;;;;;;36.08;27.73;;;8.70;95.10;;;;;;4963780;28;20074;-76
2022/11/28 05:19:56;;;;;;;37.83;28.90;;;8.80;95.10;;;;;;4961006;28;20110;-73
2022/11/28 05:22:21;;;;;;;38.60;29.83;;;8.80;95.10;;;;;;4964948;28;20050;-73
2022/11/28 05:24:47;;;;;;;35.50;29.23;;;8.80;95.10;;;;;;4964968;28;20045;-74
2022/11/28 05:27:12;;;;;;;34.22;27.88;;;8.70;95.10;;;;;;4959149;28;20032;-73
2022/11/28 05:29:42;;;;;;;35.85;28.52;;;8.70;95.10;;;;;;4964964;28;20049;-76
2022/11/28 05:32:08;;;;;;;34.38;28.08;;;8.80;95.10;;;;;;4965690;28;20046;-74
2022/11/28 05:34:34;;;;;;;39.58;28.27;;;8.80;95.20;;;;;;4967581;28;20043;-73
2022/11/28 05:37:00;;;;;;;36.15;29.00;;;8.80;95.20;;;;;;4959715;28;20030;-78
2022/11/28 05:39:26;;;;;;;33.05;27.33;;;8.80;95.20;;;;;;4965308;28;20038;-76
2022/11/28 05:41:53;;;;;;;36.35;28.88;;;8.80;95.20;;;;;;4959770;28;20494;-74
2022/11/28 05:44:19;;;;;;;35.92;30.17;;;8.80;95.20;;;;;;4961145;28;20038;-76
2022/11/28 05:46:45;;;;;;;38.53;30.83;;;8.80;95.20;;;;;;4962825;28;20447;-74
2022/11/28 05:49:11;;;;;;;36.90;30.13;;;8.80;95.20;;;;;;4959696;28;20035;-74
2022/11/28 05:51:36;;;;;;;41.17;33.25;;;8.80;95.20;;;;;;4967309;28;20125;-74
2022/11/28 05:54:02;;;;;;;37.05;29.90;;;8.80;95.20;;;;;;4967077;28;20030;-73
2022/11/28 05:56:27;;;;;;;39.35;30.25;;;8.80;95.20;;;;;;4971376;28;20436;-77
2022/11/28 05:58:53;;;;;;;37.38;28.38;;;8.90;95.20;;;;;;4965135;28;20454;-76
2022/11/28 06:01:27;;;;;;;34.67;27.33;;;8.80;95.20;;;;;;4959812;28;20161;-74
2022/11/28 06:03:58;;;;;;;39.47;29.90;;;8.80;95.30;;;;;;4961634;28;20034;-77
2022/11/28 06:06:25;;;;;;;39.05;29.50;;;8.80;95.20;;;;;;4969627;28;20049;-73
2022/11/28 06:08:51;;;;;;;38.55;28.38;;;8.80;95.30;;;;;;4964258;28;20177;-75
2022/11/28 06:11:18;;;;;;;36.72;28.95;;;8.80;95.30;;;;;;4963245;28;20614;-74
2022/11/28 06:13:45;;;;;;;37.22;29.02;;;8.80;95.30;;;;;;4961109;28;20046;-74
2022/11/28 06:16:13;;;;;;;38.15;29.15;;;8.90;95.20;;;;;;4959969;28;20091;-77
2022/11/28 06:18:40;;;;;;;37.60;29.23;;;8.80;95.20;;;;;;4958541;28;20042;-76
2022/11/28 06:21:07;;;;;;;35.75;28.42;;;8.90;95.20;;;;;;4954825;28;20054;-72
2022/11/28 06:23:33;;;;;;;38.03;28.63;;;8.80;95.20;;;;;;4959765;28;20038;-72
2022/11/28 06:26:05;;;;;;;33.22;28.30;;;8.80;95.20;;;;;;4959870;28;20036;-74
2022/11/28 06:28:30;;;;;;;36.92;29.50;;;8.80;95.20;;;;;;4957650;28;20039;-73
2022/11/28 06:30:56;;;;;;;35.90;28.58;;;8.80;95.20;;;;;;4960207;28;20035;-72
2022/11/28 06:33:22;;;;;;;41.92;31.02;;;8.80;95.20;;;;;;4962857;28;20038;-73
2022/11/28 06:35:47;;;;;;;35.28;28.23;;;8.80;95.20;;;;;;4957467;28;20353;-74
2022/11/28 06:38:13;;;;;;;35.15;27.52;;;8.80;95.20;;;;;;4959711;28;20023;-72
2022/11/28 06:40:39;;;;;;;33.15;27.58;;;8.70;95.10;;;;;;4961809;28;20100;-73
2022/11/28 06:43:05;;;;;;;36.17;28.52;;;8.70;95.10;;;;;;4977905;28;20381;-73
2022/11/28 06:45:33;;;;;;;35.40;28.25;;;8.70;95.10;;;;;;4962933;28;20062;-73
2022/11/28 06:47:59;;;;;;;32.55;26.38;;;8.70;95.20;;;;;;4966763;28;20097;-72
2022/11/28 06:50:24;;;;;;;42.90;34.72;;;8.70;95.20;;;;;;4963994;28;20061;-76
2022/11/28 06:52:50;;;;;;;42.38;33.58;;;8.70;95.30;;;;;;4965265;28;20042;-76
2022/11/28 06:55:16;;;;;;;36.47;27.85;;;8.70;95.30;;;;;;4967023;28;20506;-73
2022/11/28 06:57:42;;;;;;;35.13;28.42;;;8.70;95.30;;;;;;4970653;28;20046;-76
2022/11/28 07:00:08;;;;;;;42.97;32.47;;;8.70;95.30;;;;;;4965505;28;20039;-73
2022/11/28 07:02:34;;;;;;;37.25;29.40;;;8.70;95.30;;;;;;4964381;28;20026;-73
2022/11/28 07:05:00;;;;;;;37.10;29.33;;;8.70;95.30;;;;;;4969888;28;20375;-78
2022/11/28 07:07:25;;;;;;;38.75;28.48;;;8.60;95.30;;;;;;4966018;28;20468;-74
2022/11/28 07:09:51;;;;;;;34.25;27.10;;;8.70;95.30;;;;;;4964471;28;20031;-74
2022/11/28 07:12:17;;;;;;;33.80;25.70;;;8.60;95.30;;;;;;4964110;28;20458;-75
2022/11/28 07:14:43;;;;;;;31.15;25.52;;;8.60;95.30;;;;;;4959994;28;20086;-75
2022/11/28 07:17:08;;;;;;;33.42;26.10;;;8.60;95.30;;;;;;4969285;28;20468;-79
2022/11/28 07:19:34;;;;;;;33.72;26.95;;;8.60;95.30;;;;;;4967450;28;20069;-79
2022/11/28 07:22:00;;;;;;;33.15;24.90;;;8.70;95.40;;;;;;4968377;28;20127;-78
2022/11/28 07:24:26;;;;;;;30.77;24.88;;;8.60;95.30;;;;;;4969722;28;20050;-79
2022/11/28 07:26:52;;;;;;;31.00;23.25;;;8.60;95.40;;;;;;4968267;28;20616;-80
2022/11/28 07:29:18;;;;;;;30.90;23.95;;;8.60;95.40;;;;;;4968281;28;20031;-80
2022/11/28 07:31:44;;;;;;;29.60;21.92;;;8.60;95.30;;;;;;4961830;28;20401;-80
2022/11/28 07:34:10;;;;;;;31.92;23.23;;;8.60;95.30;;;;;;4960750;28;20034;-82
2022/11/28 07:36:36;;;;;;;32.30;24.02;;;8.60;95.30;;;;;;4964985;28;20042;-80
2022/11/28 07:39:04;;;;;;;27.08;22.30;;;8.60;95.30;;;;;;4963727;28;20042;-81
2022/11/28 07:41:30;;;;;;;24.70;21.02;;;8.50;95.20;;;;;;4960892;28;20135;-81
2022/11/28 07:43:58;;;;;;;34.25;23.60;;;8.50;95.30;;;;;;4963229;28;20400;-80
2022/11/28 07:46:25;;;;;;;38.45;22.77;;;8.50;95.30;;;;;;4970896;28;20026;-79
2022/11/28 07:48:51;;;;;;;52.75;24.35;;;8.50;95.30;;;;;;4959966;28;20060;-79
2022/11/28 07:51:19;;;;;;;81.95;26.73;;;8.60;95.30;;;;;;4966318;28;20644;-79
2022/11/28 07:53:46;;;;;;;34.03;20.38;;;8.60;95.30;;;;;;4960643;28;20039;-79
2022/11/28 07:56:15;;;;;;;26.52;18.60;;;8.50;95.30;;;;;;4965859;28;20499;-79
2022/11/28 07:58:43;;;;;;;25.08;18.27;;;8.60;95.30;;;;;;4961438;28;20590;-79
2022/11/28 08:01:14;;;;;;;22.63;18.77;;;8.60;95.30;;;;;;4958622;28;20046;-79
2022/11/28 08:03:40;;;;;;;26.48;19.38;;;8.60;95.30;;;;;;4959144;28;20031;-80
2022/11/28 08:06:07;;;;;;;23.00;18.67;;;8.60;95.30;;;;;;4965630;28;20041;-80
2022/11/28 08:08:32;;;;;;;23.02;19.05;;;8.60;95.20;;;;;;4965756;28;20042;-79
2022/11/28 08:11:00;;;;;;;22.92;19.33;;;8.60;95.20;;;;;;4965707;28;20422;-79
2022/11/28 08:13:27;;;;;;;27.83;20.48;;;8.60;95.20;;;;;;4962374;28;20133;-80
2022/11/28 08:15:53;;;;;;;21.05;18.17;;;8.70;95.20;;;;;;4963685;28;20039;-78
2022/11/28 08:18:19;;;;;;;39.65;31.25;;;8.70;95.10;;;;;;4965353;28;20075;-78
2022/11/28 08:20:44;;;;;;;53.80;31.00;;;8.70;95.20;;;;;;4965249;28;20078;-81
2022/11/28 08:23:10;;;;;;;41.13;26.60;;;8.70;95.10;;;;;;4957853;28;20042;-80
2022/11/28 08:25:36;;;;;;;42.33;24.77;;;8.80;95.10;;;;;;4958328;28;20052;-80
2022/11/28 08:28:02;;;;;;;44.15;23.40;;;8.80;95.00;;;;;;4967982;28;20487;-81
2022/11/28 08:30:27;;;;;;;32.75;21.60;;;8.80;95.00;;;;;;4969716;28;20059;-79
2022/11/28 08:32:54;;;;;;;80.32;32.95;;;8.80;94.90;;;;;;4966205;28;20038;-78
2022/11/28 08:35:20;;;;;;;35.25;24.13;;;8.80;94.90;;;;;;4961521;28;20126;-77
2022/11/28 08:37:47;;;;;;;27.00;21.63;;;8.80;94.90;;;;;;4964039;28;20042;-77
2022/11/28 08:40:13;;;;;;;61.33;26.08;;;8.90;94.90;;;;;;4964095;28;20034;-82
2022/11/28 08:42:38;;;;;;;42.22;24.48;;;8.90;94.80;;;;;;4970605;28;20039;-78
2022/11/28 08:45:06;;;;;;;52.85;24.25;;;8.80;94.80;;;;;;4973514;28;20121;-80
2022/11/28 08:47:32;;;;;;;38.90;22.60;;;8.90;94.80;;;;;;4966780;28;20038;-77
2022/11/28 08:49:57;;;;;;;52.35;46.28;;;8.90;94.80;;;;;;4971106;28;20380;-79
2022/11/28 08:52:24;;;;;;;35.45;28.20;;;8.90;94.80;;;;;;4972897;28;20093;-75
2022/11/28 08:54:50;;;;;;;27.67;23.08;;;9.00;94.80;;;;;;4969942;28;20038;-78
2022/11/28 08:57:16;;;;;;;27.48;21.73;;;9.00;94.70;;;;;;4970114;28;20383;-78
2022/11/28 08:59:41;;;;;;;65.90;25.85;;;9.00;94.70;;;;;;4970235;28;20047;-75
2022/11/28 09:02:11;;;;;;;52.28;31.08;;;9.00;94.70;;;;;;4969192;28;20033;-78
2022/11/28 09:04:37;;;;;;;32.92;24.20;;;9.10;94.70;;;;;;4968484;28;20034;-74
2022/11/28 09:07:03;;;;;;;52.10;26.38;;;9.10;94.70;;;;;;4969472;28;20034;-74
2022/11/28 09:09:29;;;;;;;32.25;24.23;;;9.10;94.70;;;;;;4967388;28;20030;-81
2022/11/28 09:11:55;;;;;;;29.00;25.42;;;9.10;94.60;;;;;;4969402;28;20027;-77
2022/11/28 09:14:21;;;;;;;36.58;27.92;;;9.10;94.60;;;;;;4969228;28;20073;-76
2022/11/28 09:16:47;;;;;;;47.25;33.15;;;9.10;94.70;;;;;;4965607;28;20031;-76
2022/11/28 09:19:12;;;;;;;67.28;39.90;;;9.20;94.70;;;;;;4967290;28;20022;-78
2022/11/28 09:21:40;;;;;;;55.28;42.08;;;9.20;94.60;;;;;;4971577;28;20034;-79
2022/11/28 09:24:07;;;;;;;45.53;38.03;;;9.20;94.60;;;;;;4972993;28;20069;-79
2022/11/28 09:26:32;;;;;;;49.25;37.53;;;9.20;94.60;;;;;;4985768;28;20031;-76
2022/11/28 09:28:59;;;;;;;46.72;36.72;;;9.20;94.60;;;;;;4969995;28;20031;-81
2022/11/28 09:31:25;;;;;;;72.75;56.30;;;9.20;94.60;;;;;;4970670;28;20085;-78
2022/11/28 09:33:51;;;;;;;62.63;46.58;;;9.30;94.60;;;;;;4973306;28;20035;-76
2022/11/28 09:36:19;;;;;;;81.35;60.17;;;9.30;94.70;;;;;;4970568;28;20147;-77
2022/11/28 09:38:45;;;;;;;54.30;41.72;;;9.40;94.70;;;;;;4966161;28;20031;-76
2022/11/28 09:41:30;;;;;;;47.15;36.95;;;9.60;94.70;;;;;;4970924;28;20049;-78
2022/11/28 09:44:07;;;;;;;56.15;41.22;;;9.60;94.70;;;;;;4967073;28;20383;-76
2022/11/28 09:46:35;;;;;;;76.30;43.17;;;9.60;94.60;;;;;;4971085;28;20397;-74
2022/11/28 09:49:09;;;;;;;97.93;37.90;;;9.60;94.50;;;;;;4966488;28;20039;-76
2022/11/28 09:51:41;;;;;;;39.60;32.17;;;9.70;94.40;;;;;;4968583;28;20487;-78
2022/11/28 09:54:12;;;;;;;57.25;41.10;;;9.70;94.30;;;;;;4970947;28;20324;-76
2022/11/28 09:56:38;;;;;;;41.05;32.42;;;9.80;94.30;;;;;;4967519;28;20027;-77
2022/11/28 09:59:29;;;;;;;78.72;42.05;;;9.80;94.30;;;;;;4962764;28;20041;-77
2022/11/28 10:01:58;;;;;;;85.35;35.75;;;9.80;94.20;;;;;;4977513;28;20096;-77
2022/11/28 10:04:39;;;;;;;42.05;33.50;;;9.80;94.10;;;;;;4958898;28;20046;-80
2022/11/28 10:07:39;;;;;;;40.33;32.92;;;9.90;94.20;;;;;;4959000;28;20058;-75
2022/11/28 10:10:30;;;;;;;36.58;29.60;;;9.90;94.10;;;;;;4959808;28;20122;-78
2022/11/28 10:13:04;;;;;;;43.08;34.58;;;9.90;94.00;;;;;;4983250;28;20038;-77
2022/11/28 10:16:13;;;;;;;79.45;45.13;;;10.10;94.10;;;;;;4963719;28;20118;-77
2022/11/28 10:19:09;;;;;;;56.28;43.38;;;10.10;94.00;;;;;;4964529;28;20042;-77
2022/11/28 10:21:37;;;;;;;57.67;34.97;;;10.20;94.10;;;;;;4966915;28;20054;-78
2022/11/28 10:24:10;;;;;;;38.15;28.65;;;10.10;93.80;;;;;;4963781;28;20030;-78
2022/11/28 10:26:38;;;;;;;60.10;43.65;;;10.10;93.60;;;;;;4961826;28;20035;-78
2022/11/28 10:29:37;;;;;;;54.70;36.88;;;10.10;93.70;;;;;;4966149;28;20031;-80
2022/11/28 10:32:05;;;;;;;44.28;30.27;;;10.10;93.90;;;;;;4971163;28;20023;-78
2022/11/28 10:34:44;;;;;;;52.17;31.20;;;10.10;93.80;;;;;;4970595;28;20043;-77
2022/11/28 10:37:24;;;;;;;47.00;28.40;;;10.20;93.90;;;;;;4967622;28;20454;-80
2022/11/28 10:39:50;;;;;;;38.55;26.98;;;10.20;93.80;;;;;;4969142;28;20142;-78
2022/11/28 10:42:28;;;;;;;41.45;28.90;;;10.30;93.90;;;;;;4969987;28;20207;-77
2022/11/28 10:45:15;;;;;;;41.45;25.90;;;10.40;93.90;;;;;;4967493;28;20276;-78
2022/11/28 10:47:59;;;;;;;34.45;25.00;;;10.40;93.70;;;;;;4970584;28;20043;-76
2022/11/28 10:50:49;;;;;;;39.58;27.85;;;10.40;93.60;;;;;;4964486;28;20259;-76
2022/11/28 10:53:29;;;;;;;41.70;29.90;;;10.40;93.50;;;;;;4962447;28;20130;-76
2022/11/28 10:56:12;;;;;;;45.55;31.33;;;10.50;93.40;;;;;;4967689;28;20047;-78
2022/11/28 10:59:09;;;;;;;38.30;27.77;;;10.40;93.30;;;;;;4963985;28;20428;-78
2022/11/28 11:01:38;;;;;;;43.78;27.65;;;10.40;93.30;;;;;;4960777;28;20196;-77
2022/11/28 11:04:06;;;;;;;107.30;87.30;;;10.40;93.30;;;;;;4964061;28;20058;-78
2022/11/28 11:06:32;;;;;;;60.88;43.65;;;10.40;93.30;;;;;;4967967;28;20034;-76
2022/11/28 11:08:58;;;;;;;76.45;40.00;;;10.40;93.30;;;;;;4972532;28;20081;-76
2022/11/28 11:11:30;;;;;;;98.30;59.58;;;10.50;93.30;;;;;;4964661;28;20632;-79
2022/11/28 11:14:05;;;;;;;62.88;43.90;;;10.50;93.30;;;;;;4960129;28;20054;-78
2022/11/28 11:16:47;;;;;;;60.78;46.00;;;10.50;93.10;;;;;;4965165;28;20046;-78
2022/11/28 11:19:37;;;;;;;53.97;35.05;;;10.50;93.00;;;;;;4962038;28;20491;-81
2022/11/28 11:22:06;;;;;;;48.17;32.05;;;10.60;93.00;;;;;;4958071;28;20311;-78
2022/11/28 11:24:32;;;;;;;45.80;29.98;;;10.60;92.90;;;;;;4960475;28;20062;-76
2022/11/28 11:27:20;;;;;;;34.22;26.25;;;10.60;92.80;;;;;;4962015;28;20066;-78
2022/11/28 11:29:46;;;;;;;49.47;31.17;;;10.70;92.90;;;;;;4963355;28;20509;-77
2022/11/28 11:32:38;;;;;;;49.60;28.45;;;10.80;92.50;;;;;;4963055;28;20051;-78
2022/11/28 11:35:05;;;;;;;40.50;28.15;;;10.80;92.50;;;;;;4967335;28;20355;-77
2022/11/28 11:37:36;;;;;;;43.97;27.58;;;10.70;92.20;;;;;;4966754;28;20046;-77
2022/11/28 11:40:19;;;;;;;38.22;25.23;;;10.80;92.20;;;;;;4967849;28;20092;-78
2022/11/28 11:42:53;;;;;;;34.65;23.92;;;10.80;92.10;;;;;;4966797;28;20054;-77
2022/11/28 11:45:32;;;;;;;45.72;27.48;;;10.70;91.90;;;;;;4971289;28;20076;-77
2022/11/28 11:47:58;;;;;;;42.47;27.95;;;10.70;91.70;;;;;;4966352;28;20034;-78
2022/11/28 11:50:27;;;;;;;47.20;25.70;;;10.80;92.00;;;;;;4965875;28;20027;-77
2022/11/28 11:53:11;;;;;;;46.28;32.13;;;10.80;91.90;;;;;;4965834;28;20109;-77
2022/11/28 11:55:48;;;;;;;174.70;47.42;;;10.80;91.90;;;;;;4964995;28;20383;-75
2022/11/28 11:58:22;;;;;;;93.47;32.85;;;10.80;91.70;;;;;;4960209;28;20089;-78
2022/11/28 12:00:51;;;;;;;99.47;33.90;;;10.90;91.60;;;;;;4962791;28;20038;-80
2022/11/28 12:03:35;;;;;;;107.40;36.60;;;10.90;91.50;;;;;;4961980;28;20376;-80
2022/11/28 12:06:16;;;;;;;160.23;45.45;;;11.00;91.70;;;;;;4967171;28;20054;-80
2022/11/28 12:09:04;;;;;;;98.00;35.40;;;11.10;91.50;;;;;;4980337;28;20043;-81
2022/11/28 12:11:41;;;;;;;186.15;46.72;;;11.10;91.30;;;;;;4962654;28;20035;-80
2022/11/28 12:14:31;;;;;;;139.60;40.25;;;11.20;91.30;;;;;;4960564;28;20122;-80
2022/11/28 12:17:24;;;;;;;150.77;39.33;;;11.30;91.00;;;;;;4962069;28;20035;-80
2022/11/28 12:20:23;;;;;;;55.47;25.27;;;11.30;90.60;;;;;;4968444;28;20464;-81
2022/11/28 12:23:01;;;;;;;75.90;30.25;;;11.30;90.40;;;;;;4968491;28;20046;-80
2022/11/28 12:25:43;;;;;;;86.07;30.65;;;11.40;90.40;;;;;;4971522;28;20062;-82
2022/11/28 12:28:28;;;;;;;76.05;29.15;;;11.40;90.10;;;;;;4962833;28;20050;-83
2022/11/28 12:30:54;;;;;;;139.88;36.45;;;11.40;90.20;;;;;;4965568;28;20078;-81
2022/11/28 12:33:53;;;;;;;325.85;64.05;;;11.40;89.80;;;;;;4967595;28;20475;-81
2022/11/28 12:37:04;;;;;;;49.75;22.83;;;11.50;90.00;;;;;;4965036;28;20357;-78
2022/11/28 12:39:53;;;;;;;96.05;29.85;;;11.50;89.70;;;;;;4968628;28;20045;-79
2022/11/28 12:42:28;;;;;;;76.15;29.70;;;11.50;89.30;;;;;;4966441;28;20122;-79
2022/11/28 12:45:12;;;;;;;42.53;25.23;;;11.50;89.70;;;;;;4971827;28;20074;-78
2022/11/28 12:47:49;;;;;;;48.33;24.60;;;11.50;89.40;;;;;;4967227;28;20174;-78
2022/11/28 12:50:24;;;;;;;57.20;25.65;;;11.50;89.40;;;;;;4972447;28;20030;-79
2022/11/28 12:53:08;;;;;;;38.17;23.10;;;11.40;89.60;;;;;;4964296;28;20511;-78
2022/11/28 12:55:46;;;;;;;31.35;20.50;;;11.50;89.80;;;;;;4966770;28;20093;-80
2022/11/28 12:58:23;;;;;;;103.95;29.70;;;11.50;89.40;;;;;;4970999;28;20101;-79
2022/11/28 13:00:57;;;;;;;49.70;25.35;;;11.40;89.30;;;;;;4969662;28;20379;-79